createdAt,value
2023-04-19T00:02:25.926Z,5.38
2023-04-19T00:04:55.789Z,5.50
2023-04-19T00:07:23.594Z,5.25
2023-04-19T00:09:51.565Z,4.78
2023-04-19T00:12:19.305Z,5.22
2023-04-19T00:14:47.219Z,5.10
2023-04-19T00:17:14.960Z,5.10
2023-04-19T00:19:43.182Z,5.40
2023-04-19T00:22:10.801Z,5.43
2023-04-19T00:24:38.740Z,5.65
2023-04-19T00:27:06.422Z,5.88
2023-04-19T00:29:34.573Z,5.15
2023-04-19T00:32:02.346Z,5.50
2023-04-19T00:34:31.841Z,5.90
2023-04-19T00:36:59.504Z,6.18
2023-04-19T00:39:27.478Z,5.90
2023-04-19T00:41:57.545Z,6.00
2023-04-19T00:44:25.553Z,5.53
2023-04-19T00:46:56.489Z,5.95
2023-04-19T00:49:25.376Z,5.90
2023-04-19T00:51:53.551Z,6.32
2023-04-19T00:54:21.614Z,5.78
2023-04-19T00:56:51.515Z,6.05
2023-04-19T00:59:19.520Z,6.15
2023-04-19T01:01:47.646Z,6.47
2023-04-19T01:04:17.293Z,6.32
2023-04-19T01:06:45.373Z,6.30
2023-04-19T01:09:13.342Z,7.18
2023-04-19T01:11:43.423Z,6.50
2023-04-19T01:14:11.709Z,6.88
2023-04-19T01:16:39.615Z,6.95
2023-04-19T01:19:07.558Z,7.43
2023-04-19T01:21:39.452Z,7.25
2023-04-19T01:24:07.698Z,7.97
2023-04-19T01:26:35.434Z,7.85
2023-04-19T01:29:03.970Z,7.55
2023-04-19T01:31:31.805Z,7.43
2023-04-19T01:33:59.785Z,8.25
2023-04-19T01:36:27.921Z,8.90
2023-04-19T01:38:56.925Z,9.90
2023-04-19T01:41:27.215Z,9.80
2023-04-19T01:43:55.417Z,10.43
2023-04-19T01:46:23.250Z,10.02
2023-04-19T01:48:52.426Z,11.40
2023-04-19T01:51:22.106Z,10.63
2023-04-19T01:53:54.588Z,11.23
2023-04-19T01:56:23.973Z,11.95
2023-04-19T01:58:51.978Z,11.95
2023-04-19T02:01:20.236Z,13.00
2023-04-19T02:03:48.408Z,12.52
2023-04-19T02:06:16.194Z,12.45
2023-04-19T02:08:44.211Z,12.55
2023-04-19T02:11:16.564Z,12.90
2023-04-19T02:13:44.634Z,12.30
2023-04-19T02:16:12.506Z,12.90
2023-04-19T02:18:40.721Z,12.75
2023-04-19T02:21:09.957Z,13.90
2023-04-19T02:23:37.964Z,14.27
2023-04-19T02:26:05.796Z,13.07
2023-04-19T02:28:34.030Z,14.25
2023-04-19T02:31:06.184Z,14.45
2023-04-19T02:33:36.522Z,14.75
2023-04-19T02:36:04.683Z,14.25
2023-04-19T02:38:34.126Z,14.57
2023-04-19T02:41:04.391Z,14.00
2023-04-19T02:43:32.366Z,14.73
2023-04-19T02:46:00.073Z,13.27
2023-04-19T02:48:28.125Z,14.32
2023-04-19T02:50:55.980Z,14.43
2023-04-19T02:53:24.800Z,14.45
2023-04-19T02:55:52.559Z,15.25
2023-04-19T02:58:21.561Z,14.98
2023-04-19T03:01:01.311Z,14.68
2023-04-19T03:03:29.270Z,14.77
2023-04-19T03:05:57.566Z,14.23
2023-04-19T03:08:25.594Z,13.90
2023-04-19T03:10:53.385Z,13.55
2023-04-19T03:13:21.359Z,14.70
2023-04-19T03:15:49.322Z,14.32
2023-04-19T03:18:18.586Z,13.85
2023-04-19T03:20:47.265Z,13.73
2023-04-19T03:23:15.214Z,12.60
2023-04-19T03:25:43.147Z,13.15
2023-04-19T03:28:22.072Z,12.93
2023-04-19T03:31:09.757Z,13.07
2023-04-19T03:33:38.199Z,13.00
2023-04-19T03:36:07.105Z,12.35
2023-04-19T03:38:36.665Z,12.38
2023-04-19T03:41:06.180Z,13.02
2023-04-19T03:43:38.199Z,13.18
2023-04-19T03:46:05.939Z,13.40
2023-04-19T03:48:35.734Z,14.20
2023-04-19T03:51:03.703Z,13.50
2023-04-19T03:53:31.830Z,13.95
2023-04-19T03:55:59.551Z,13.75
2023-04-19T03:58:27.620Z,13.38
2023-04-19T04:01:02.841Z,14.15
2023-04-19T04:03:31.752Z,13.07
2023-04-19T04:05:59.800Z,13.65
2023-04-19T04:08:27.692Z,13.32
2023-04-19T04:10:55.669Z,14.07
2023-04-19T04:13:23.628Z,14.60
2023-04-19T04:16:04.000Z,13.52
2023-04-19T04:18:32.575Z,14.40
2023-04-19T04:21:01.402Z,13.95
2023-04-19T04:23:29.740Z,13.52
2023-04-19T04:26:01.833Z,14.25
2023-04-19T04:28:44.749Z,13.43
2023-04-19T04:31:13.166Z,14.40
2023-04-19T04:33:42.340Z,15.25
2023-04-19T04:36:13.651Z,14.45
2023-04-19T04:38:43.062Z,14.85
2023-04-19T04:41:12.508Z,15.43
2023-04-19T04:43:40.475Z,14.00
2023-04-19T04:46:09.125Z,14.93
2023-04-19T04:48:41.509Z,15.73
2023-04-19T04:51:09.250Z,15.25
2023-04-19T04:53:37.581Z,14.77
2023-04-19T04:56:07.034Z,16.50
2023-04-19T04:58:37.478Z,16.23
2023-04-19T05:01:08.445Z,14.57
2023-04-19T05:03:40.606Z,15.93
2023-04-19T05:06:13.054Z,15.68
2023-04-19T05:08:40.966Z,16.48
2023-04-19T05:11:28.656Z,16.42
2023-04-19T05:13:56.563Z,17.65
2023-04-19T05:16:27.222Z,16.63
2023-04-19T05:18:56.104Z,17.05
2023-04-19T05:21:26.899Z,17.30
2023-04-19T05:23:55.521Z,17.83
2023-04-19T05:26:24.455Z,16.02
2023-04-19T05:28:53.631Z,16.80
2023-04-19T05:31:28.567Z,16.38
2023-04-19T05:34:08.035Z,15.50
2023-04-19T05:36:35.724Z,15.60
2023-04-19T05:39:03.833Z,16.23
2023-04-19T05:41:32.091Z,16.15
2023-04-19T05:44:00.180Z,15.43
2023-04-19T05:46:27.868Z,14.95
2023-04-19T05:48:57.678Z,14.55
2023-04-19T05:51:28.370Z,15.07
2023-04-19T05:54:05.579Z,14.75
2023-04-19T05:56:33.576Z,14.30
2023-04-19T05:59:01.728Z,14.77
2023-04-19T06:01:29.736Z,13.50
2023-04-19T06:03:58.021Z,14.00
2023-04-19T06:06:26.153Z,13.43
2023-04-19T06:08:55.124Z,12.60
2023-04-19T06:11:29.247Z,12.85
2023-04-19T06:14:03.552Z,12.55
2023-04-19T06:16:31.399Z,11.63
2023-04-19T06:18:59.459Z,12.27
2023-04-19T06:21:29.885Z,11.43
2023-04-19T06:23:57.816Z,10.98
2023-04-19T06:26:25.537Z,11.70
2023-04-19T06:28:53.570Z,11.55
2023-04-19T06:31:21.255Z,11.20
2023-04-19T06:33:49.222Z,11.93
2023-04-19T06:36:16.883Z,11.52
2023-04-19T06:38:46.326Z,12.40
2023-04-19T06:41:14.113Z,12.45
2023-04-19T06:43:42.929Z,10.63
2023-04-19T06:46:11.434Z,10.27
2023-04-19T06:48:39.370Z,10.05
2023-04-19T06:51:07.196Z,10.75
2023-04-19T06:53:35.790Z,11.60
2023-04-19T06:56:05.072Z,11.63
2023-04-19T06:58:35.216Z,10.93
2023-04-19T07:01:05.075Z,11.15
2023-04-19T07:03:33.371Z,11.95
2023-04-19T07:06:01.220Z,11.27
2023-04-19T07:08:42.331Z,11.00
2023-04-19T07:11:16.264Z,10.50
2023-04-19T07:13:44.294Z,10.00
2023-04-19T07:16:12.617Z,11.23
2023-04-19T07:18:40.670Z,10.75
2023-04-19T07:21:08.356Z,11.27
2023-04-19T07:23:36.331Z,10.63
2023-04-19T07:26:04.120Z,10.85
2023-04-19T07:28:32.227Z,11.40
2023-04-19T07:31:01.123Z,10.45
2023-04-19T07:33:29.677Z,10.82
2023-04-19T07:35:57.407Z,10.75
2023-04-19T07:38:25.405Z,10.50
2023-04-19T07:40:53.281Z,10.13
2023-04-19T07:43:21.386Z,10.98
2023-04-19T07:45:49.075Z,10.68
2023-04-19T07:48:17.017Z,9.43
2023-04-19T07:50:44.628Z,8.63
2023-04-19T07:53:12.620Z,8.98
2023-04-19T07:55:40.330Z,9.85
2023-04-19T07:58:08.314Z,8.75
2023-04-19T08:00:37.913Z,9.13
2023-04-19T08:03:06.607Z,9.20
2023-04-19T08:05:35.208Z,8.10
2023-04-19T08:08:03.305Z,7.90
2023-04-19T08:10:31.903Z,8.23
2023-04-19T08:13:05.684Z,7.88
2023-04-19T08:18:06.450Z,8.68
2023-04-19T08:20:34.195Z,9.13
2023-04-19T08:23:10.381Z,8.48
2023-04-19T08:25:46.236Z,8.23
2023-04-19T08:28:14.257Z,7.82
2023-04-19T08:30:42.071Z,8.40
2023-04-19T08:33:10.961Z,8.40
2023-04-19T08:35:41.462Z,8.30
2023-04-19T08:38:10.681Z,8.27
2023-04-19T08:40:52.698Z,8.57
2023-04-19T08:43:21.682Z,8.30
2023-04-19T08:45:50.933Z,8.00
2023-04-19T08:48:19.436Z,7.85
2023-04-19T08:51:00.659Z,8.73
2023-04-19T08:53:35.720Z,8.77
2023-04-19T08:56:17.370Z,9.15
2023-04-19T09:01:31.165Z,8.85
2023-04-19T09:04:21.029Z,9.25
2023-04-19T09:06:54.867Z,9.07
2023-04-19T09:09:35.533Z,9.07
2023-04-19T09:12:17.836Z,8.63
2023-04-19T09:15:00.675Z,9.00
2023-04-19T09:17:31.154Z,8.68
2023-04-19T09:19:59.670Z,9.90
2023-04-19T09:22:27.610Z,9.60
2023-04-19T09:27:31.674Z,8.57
2023-04-19T09:30:01.860Z,8.97
2023-04-19T09:32:45.559Z,8.65
2023-04-19T09:35:13.667Z,9.50
2023-04-19T09:38:01.894Z,10.45
2023-04-19T09:40:29.811Z,9.10
2023-04-19T09:43:07.340Z,9.73
2023-04-19T09:45:46.501Z,9.00
2023-04-19T09:48:14.365Z,10.77
2023-04-19T09:51:14.413Z,10.27
2023-04-19T09:53:44.080Z,10.32
2023-04-19T09:56:12.963Z,10.27
2023-04-19T09:58:51.274Z,10.40
2023-04-19T10:01:25.904Z,10.10
2023-04-19T10:03:55.571Z,9.70
2023-04-19T10:06:39.998Z,9.73
2023-04-19T10:09:08.747Z,9.82
2023-04-19T10:11:43.049Z,9.18
2023-04-19T10:14:13.259Z,10.70
2023-04-19T10:16:41.251Z,10.20
2023-04-19T10:19:17.720Z,9.75
2023-04-19T10:21:47.903Z,10.10
2023-04-19T10:24:18.589Z,9.25
2023-04-19T10:27:05.355Z,10.00
2023-04-19T10:29:51.904Z,10.18
2023-04-19T10:32:19.970Z,9.95
2023-04-19T10:34:47.804Z,9.27
2023-04-19T10:37:17.296Z,8.70
2023-04-19T10:39:45.957Z,9.40
2023-04-19T10:42:14.021Z,8.85
2023-04-19T10:44:41.660Z,9.48
2023-04-19T10:47:10.427Z,9.00
2023-04-19T10:49:47.164Z,8.93
2023-04-19T10:52:29.721Z,9.07
2023-04-19T10:54:57.588Z,8.27
2023-04-19T10:57:25.646Z,7.82
2023-04-19T11:00:18.517Z,8.27
2023-04-19T11:02:46.632Z,7.40
2023-04-19T11:05:14.565Z,7.70
2023-04-19T11:07:43.111Z,7.85
2023-04-19T11:10:11.830Z,7.55
2023-04-19T11:12:43.881Z,8.05
2023-04-19T11:15:12.116Z,7.57
2023-04-19T11:17:40.340Z,7.53
2023-04-19T11:20:11.809Z,7.40
2023-04-19T11:22:47.297Z,7.65
2023-04-19T11:25:20.693Z,7.00
2023-04-19T11:27:51.114Z,7.07
2023-04-19T11:32:57.490Z,7.45
2023-04-19T11:35:32.475Z,6.85
2023-04-19T11:38:01.563Z,6.70
2023-04-19T11:40:29.280Z,6.95
2023-04-19T11:43:02.151Z,7.55
2023-04-19T11:45:36.887Z,7.25
2023-04-19T11:48:13.322Z,7.45
2023-04-19T11:50:43.104Z,7.57
2023-04-19T11:53:15.883Z,7.28
2023-04-19T11:55:48.158Z,7.32
2023-04-19T11:58:26.821Z,6.95
2023-04-19T12:00:55.796Z,6.85
2023-04-19T12:03:26.342Z,7.03
2023-04-19T12:05:55.439Z,6.32
2023-04-19T12:08:34.909Z,4.82
2023-04-19T12:11:03.827Z,5.25
2023-04-19T12:13:32.560Z,5.80
2023-04-19T12:16:01.725Z,5.90
2023-04-19T12:18:43.854Z,6.50
2023-04-19T12:21:23.738Z,6.63
2023-04-19T12:23:53.784Z,6.50
2023-04-19T12:26:21.595Z,6.82
2023-04-19T12:28:49.531Z,5.85
2023-04-19T12:31:17.207Z,6.57
2023-04-19T12:33:45.155Z,6.47
2023-04-19T12:36:13.150Z,7.15
2023-04-19T12:38:41.325Z,7.13
2023-04-19T12:41:09.272Z,6.78
2023-04-19T12:43:37.540Z,7.20
2023-04-19T12:46:05.973Z,7.93
2023-04-19T12:48:34.071Z,7.30
2023-04-19T12:51:01.869Z,7.22
2023-04-19T12:53:29.931Z,7.20
2023-04-19T12:55:58.171Z,7.07
2023-04-19T12:58:28.111Z,7.28
2023-04-19T13:00:55.851Z,6.97
2023-04-19T13:03:23.876Z,6.88
2023-04-19T13:05:51.846Z,7.03
2023-04-19T13:08:28.155Z,7.68
2023-04-19T13:11:02.860Z,7.70
2023-04-19T13:13:31.113Z,7.85
2023-04-19T13:15:59.415Z,7.72
2023-04-19T13:18:27.704Z,7.53
2023-04-19T13:20:55.428Z,7.35
2023-04-19T13:23:23.354Z,7.40
2023-04-19T13:25:51.001Z,7.25
2023-04-19T13:28:18.901Z,7.40
2023-04-19T13:30:46.699Z,7.07
2023-04-19T13:33:14.637Z,7.63
2023-04-19T13:35:42.359Z,7.60
2023-04-19T13:38:10.346Z,7.60
2023-04-19T13:40:38.388Z,8.95
2023-04-19T13:43:06.474Z,8.30
2023-04-19T13:45:34.090Z,8.13
2023-04-19T13:48:02.029Z,7.93
2023-04-19T13:50:30.554Z,8.68
2023-04-19T13:52:58.459Z,7.95
2023-04-19T13:55:27.007Z,8.55
2023-04-19T13:57:54.901Z,8.50
2023-04-19T14:00:22.607Z,8.75
2023-04-19T14:02:52.413Z,8.40
2023-04-19T14:05:20.493Z,8.13
2023-04-19T14:07:48.604Z,8.43
2023-04-19T14:10:16.360Z,7.78
2023-04-19T14:12:45.096Z,7.80
2023-04-19T14:15:13.473Z,7.72
2023-04-19T14:17:41.576Z,8.40
2023-04-19T14:20:09.716Z,8.07
2023-04-19T14:22:37.659Z,8.27
2023-04-19T14:25:06.058Z,7.95
2023-04-19T14:27:34.336Z,7.32
2023-04-19T14:30:02.027Z,7.97
2023-04-19T14:32:30.231Z,7.85
2023-04-19T14:34:58.024Z,6.95
2023-04-19T14:37:26.107Z,7.35
2023-04-19T14:39:53.814Z,6.60
2023-04-19T14:42:23.058Z,6.93
2023-04-19T14:44:52.497Z,6.82
2023-04-19T14:47:21.299Z,7.00
2023-04-19T14:49:49.332Z,7.47
2023-04-19T14:52:17.620Z,6.60
2023-04-19T14:54:45.654Z,7.10
2023-04-19T14:57:14.143Z,6.50
2023-04-19T14:59:42.070Z,7.68
2023-04-19T15:02:10.928Z,7.78
2023-04-19T15:04:40.989Z,7.40
2023-04-19T15:07:09.616Z,6.80
2023-04-19T15:09:37.389Z,7.88
2023-04-19T15:12:05.878Z,7.10
2023-04-19T15:14:33.847Z,7.25
2023-04-19T15:17:02.034Z,7.43
2023-04-19T15:19:31.215Z,8.38
2023-04-19T15:21:59.148Z,8.63
2023-04-19T15:24:26.941Z,9.07
2023-04-19T15:26:54.904Z,9.52
2023-04-19T15:29:22.541Z,10.30
2023-04-19T15:31:50.637Z,9.38
2023-04-19T15:34:18.406Z,9.70
2023-04-19T15:36:46.364Z,10.40
2023-04-19T15:39:14.210Z,10.70
2023-04-19T15:41:42.241Z,9.00
2023-04-19T15:44:09.947Z,9.60
2023-04-19T15:46:38.089Z,9.65
2023-04-19T15:49:08.385Z,10.07
2023-04-19T15:51:36.443Z,10.88
2023-04-19T15:54:04.230Z,9.43
2023-04-19T15:56:32.514Z,9.30
2023-04-19T15:59:00.708Z,9.13
2023-04-19T16:01:28.769Z,9.05
2023-04-19T16:03:56.687Z,9.15
2023-04-19T16:06:24.804Z,9.02
2023-04-19T16:08:52.526Z,10.40
2023-04-19T16:11:20.738Z,10.52
2023-04-19T16:13:48.644Z,10.55
2023-04-19T16:16:16.546Z,11.23
2023-04-19T16:18:44.252Z,13.00
2023-04-19T16:21:12.138Z,18.98
2023-04-19T16:23:39.795Z,14.68
2023-04-19T16:26:07.802Z,11.65
2023-04-19T16:28:35.678Z,11.68
2023-04-19T16:31:03.576Z,11.20
2023-04-19T16:33:31.236Z,10.23
2023-04-19T16:35:59.264Z,11.55
2023-04-19T16:38:26.972Z,13.43
2023-04-19T16:40:55.889Z,13.57
2023-04-19T16:43:23.758Z,12.65
2023-04-19T16:45:51.745Z,20.38
2023-04-19T16:48:19.512Z,15.63
2023-04-19T16:50:47.676Z,24.33
2023-04-19T16:53:15.595Z,28.58
2023-04-19T16:55:43.517Z,26.10
2023-04-19T16:58:11.227Z,36.30
2023-04-19T17:00:39.325Z,33.63
2023-04-19T17:03:09.907Z,20.08
2023-04-19T17:05:38.097Z,21.42
2023-04-19T17:08:05.998Z,22.55
2023-04-19T17:10:33.976Z,26.05
2023-04-19T17:13:01.663Z,24.50
2023-04-19T17:15:30.004Z,38.50
2023-04-19T17:17:57.727Z,31.33
2023-04-19T17:20:25.688Z,30.05
2023-04-19T17:22:53.393Z,23.33
2023-04-19T17:25:22.417Z,17.75
2023-04-19T17:27:50.949Z,13.13
2023-04-19T17:30:18.945Z,14.00
2023-04-19T17:32:46.806Z,13.85
2023-04-19T17:35:15.957Z,12.85
2023-04-19T17:37:43.764Z,13.48
2023-04-19T17:40:12.129Z,14.43
2023-04-19T17:42:39.795Z,15.43
2023-04-19T17:45:11.115Z,15.60
2023-04-19T17:47:41.959Z,15.68
2023-04-19T17:50:14.290Z,16.02
2023-04-19T17:52:41.917Z,17.38
2023-04-19T17:55:10.271Z,18.42
2023-04-19T17:57:37.988Z,19.08
2023-04-19T18:00:07.820Z,19.85
2023-04-19T18:02:38.938Z,21.30
2023-04-19T18:05:07.910Z,23.67
2023-04-19T18:07:38.428Z,25.45
2023-04-19T18:10:07.771Z,22.73
2023-04-19T18:12:35.732Z,23.73
2023-04-19T18:15:04.078Z,23.48
2023-04-19T18:17:32.052Z,22.83
2023-04-19T18:20:00.096Z,21.92
2023-04-19T18:22:28.079Z,21.80
2023-04-19T18:24:56.631Z,19.48
2023-04-19T18:27:24.249Z,19.50
2023-04-19T18:29:52.551Z,18.73
2023-04-19T18:32:21.898Z,18.23
2023-04-19T18:34:49.914Z,18.30
2023-04-19T18:37:17.961Z,17.08
2023-04-19T18:39:46.335Z,17.00
2023-04-19T18:42:14.044Z,17.13
2023-04-19T18:47:12.562Z,15.68
2023-04-19T18:49:40.720Z,15.65
2023-04-19T18:52:08.330Z,16.13
2023-04-19T18:54:37.498Z,15.48
2023-04-19T18:57:22.834Z,16.30
2023-04-19T18:59:51.462Z,20.83
2023-04-19T19:02:19.244Z,14.98
2023-04-19T19:04:56.066Z,12.48
2023-04-19T19:09:57.108Z,9.85
2023-04-19T19:12:25.868Z,9.52
2023-04-19T19:14:53.554Z,8.68
2023-04-19T19:17:22.231Z,8.32
2023-04-19T19:19:50.151Z,7.30
2023-04-19T19:22:27.700Z,6.50
2023-04-19T19:24:56.752Z,6.85
2023-04-19T19:27:25.099Z,7.65
2023-04-19T19:29:52.835Z,8.02
2023-04-19T19:32:20.853Z,7.57
2023-04-19T19:37:20.761Z,7.50
2023-04-19T19:39:48.482Z,7.22
2023-04-19T19:42:17.361Z,7.28
2023-04-19T19:44:45.280Z,7.97
2023-04-19T19:47:16.199Z,29.88
2023-04-19T19:50:05.842Z,12.02
2023-04-19T19:52:33.090Z,14.82
2023-04-19T19:55:01.298Z,14.35
2023-04-19T19:58:16.429Z,9.95
2023-04-19T20:00:37.563Z,9.73
2023-04-19T20:03:07.276Z,8.48
2023-04-19T20:05:35.351Z,9.07
2023-04-19T20:08:12.456Z,10.00
2023-04-19T20:10:42.367Z,10.60
2023-04-19T20:13:11.975Z,10.00
2023-04-19T20:15:40.398Z,9.43
2023-04-19T20:18:08.526Z,10.82
2023-04-19T20:20:37.477Z,9.57
2023-04-19T20:23:06.010Z,9.90
2023-04-19T20:25:33.749Z,10.18
2023-04-19T20:28:02.312Z,9.32
2023-04-19T20:30:30.048Z,9.38
2023-04-19T20:32:58.129Z,9.90
2023-04-19T20:35:25.929Z,9.25
2023-04-19T20:37:54.623Z,9.35
2023-04-19T20:40:23.044Z,9.80
2023-04-19T20:42:51.542Z,10.10
2023-04-19T20:45:19.196Z,9.95
2023-04-19T20:47:47.208Z,10.00
2023-04-19T20:50:15.168Z,9.68
2023-04-19T20:52:43.034Z,10.48
2023-04-19T20:55:10.959Z,11.75
2023-04-19T20:57:38.935Z,11.75
2023-04-19T21:00:08.980Z,11.02
2023-04-19T21:02:37.280Z,11.57
2023-04-19T21:05:05.693Z,12.45
2023-04-19T21:07:33.705Z,11.43
2023-04-19T21:10:01.388Z,11.82
2023-04-19T21:12:29.357Z,12.20
2023-04-19T21:14:57.139Z,12.90
2023-04-19T21:17:25.132Z,10.63
2023-04-19T21:19:52.883Z,10.15
2023-04-19T21:22:20.809Z,10.23
2023-04-19T21:24:48.476Z,9.35
2023-04-19T21:27:16.546Z,8.77
2023-04-19T21:29:44.202Z,8.00
2023-04-19T21:32:12.204Z,7.80
2023-04-19T21:34:39.888Z,7.75
2023-04-19T21:37:07.883Z,8.80
2023-04-19T21:39:35.649Z,6.95
2023-04-19T21:42:03.560Z,9.13
2023-04-19T21:44:31.228Z,8.55
2023-04-19T21:46:59.224Z,8.32
2023-04-19T21:49:26.992Z,9.57
2023-04-19T21:51:56.850Z,8.68
2023-04-19T21:54:33.404Z,10.18
2023-04-19T21:57:02.929Z,9.50
2023-04-19T21:59:31.115Z,10.80
2023-04-19T22:01:59.663Z,9.93
2023-04-19T22:04:30.834Z,11.50
2023-04-19T22:07:02.881Z,11.80
2023-04-19T22:09:31.225Z,11.40
2023-04-19T22:12:00.175Z,11.18
2023-04-19T22:14:28.458Z,11.48
2023-04-19T22:16:56.870Z,10.98
2023-04-19T22:19:24.542Z,10.90
2023-04-19T22:21:53.529Z,10.98
2023-04-19T22:24:22.197Z,11.27
2023-04-19T22:26:50.994Z,11.13
2023-04-19T22:29:19.557Z,12.45
2023-04-19T22:31:47.654Z,11.75
2023-04-19T22:34:15.307Z,12.10
2023-04-19T22:36:43.193Z,12.40
2023-04-19T22:39:11.020Z,12.60
2023-04-19T22:41:39.085Z,13.13
2023-04-19T22:44:06.683Z,12.00
2023-04-19T22:46:36.718Z,12.68
2023-04-19T22:49:04.527Z,12.52
2023-04-19T22:51:32.436Z,12.30
2023-04-19T22:54:00.157Z,11.88
2023-04-19T22:56:28.051Z,11.63
2023-04-19T22:58:55.726Z,11.93
2023-04-19T23:01:23.742Z,10.95
2023-04-19T23:03:51.562Z,11.48
2023-04-19T23:06:19.515Z,11.85
2023-04-19T23:08:47.096Z,12.05
2023-04-19T23:11:14.962Z,10.57
2023-04-19T23:13:42.627Z,11.75
2023-04-19T23:16:11.437Z,11.23
2023-04-19T23:18:40.284Z,11.68
2023-04-19T23:21:08.641Z,11.65
2023-04-19T23:23:36.337Z,10.93
2023-04-19T23:26:04.344Z,11.38
2023-04-19T23:28:32.006Z,11.52
2023-04-19T23:30:59.900Z,10.48
2023-04-19T23:33:27.567Z,11.35
2023-04-19T23:35:55.841Z,10.95
2023-04-19T23:38:23.507Z,10.43
2023-04-19T23:40:51.496Z,11.25
2023-04-19T23:43:19.152Z,11.40
2023-04-19T23:45:47.070Z,12.02
2023-04-19T23:48:14.665Z,11.20
2023-04-19T23:50:44.766Z,11.32
2023-04-19T23:53:12.454Z,12.50
2023-04-19T23:55:40.426Z,11.63
2023-04-19T23:58:08.127Z,10.40
